KSAC/SAC METAR and TAF weather

Enter ICAO airport designator
Station Type Date Time Source
KSAC METAR 2021/09/20 05:53 UTC NOAA

KSAC 200553Z AUTO 30005KT 10SM CLR 18/08 A2998 RMK AO2 SLP150 T01830078 10272 20183 58001


Station Type Date Time Source
KSAC Decoded METAR 2021/09/20 05:53 UTC NOAA

SACRAMENTO EXECUTIVE AIRPORT , CA, United States (KSAC) 38-30N 121-30W 11M
Sep 20, 2021 - 01:53 AM EDT / 2021.09.20 0553 UTC
Wind: from the WNW (300 degrees) at 6 MPH (5 KT):0
Visibility: 10 mile(s):0
Sky conditions: clear
Temperature: 64.9 F (18.3 C)
Dew Point: 46.0 F (7.8 C)
Relative Humidity: 50%
Pressure (altimeter): 29.98 in. Hg (1015 hPa)
Pressure tendency: 0.00 inches (0.1 hPa) lower than three hours ago
ob: KSAC 200553Z AUTO 30005KT 10SM CLR 18/08 A2998 RMK AO2 SLP150 T01830078 10272 20183 58001
cycle: 6

Station Type Date Time Source
KSAC TAF 2021/09/20 06:30 UTC NOAA

TAF KSAC 200527Z 2006/2106 32005KT P6SM SKC
FM201800 34010G16KT P6SM SKC

Example: see airport list